createdAt,value
2023-04-19T00:01:49.453Z,48.24
2023-04-19T00:06:49.454Z,48.03
2023-04-19T00:11:49.445Z,48.07
2023-04-19T00:16:49.456Z,47.93
2023-04-19T00:21:49.448Z,47.82
2023-04-19T00:26:49.459Z,47.61
2023-04-19T00:31:49.450Z,47.72
2023-04-19T00:36:49.461Z,47.82
2023-04-19T00:41:49.527Z,47.81
2023-04-19T00:46:49.454Z,47.99
2023-04-19T00:51:49.509Z,47.96
2023-04-19T00:56:49.456Z,48.08
2023-04-19T01:01:49.468Z,48.12
2023-04-19T01:11:49.470Z,48.05
2023-04-19T01:16:49.473Z,47.75
2023-04-19T01:21:49.462Z,47.93
2023-04-19T01:26:49.475Z,47.84
2023-04-19T01:31:49.465Z,47.68
2023-04-19T01:36:49.476Z,47.55
2023-04-19T01:41:49.477Z,47.64
2023-04-19T01:46:49.469Z,47.7
2023-04-19T01:51:49.482Z,47.92
2023-04-19T01:56:49.471Z,48.16
2023-04-19T02:01:49.483Z,48.44
2023-04-19T02:06:49.483Z,48.89
2023-04-19T02:11:49.485Z,48.7
2023-04-19T02:16:49.487Z,48.48
2023-04-19T02:21:49.477Z,48.19
2023-04-19T02:26:49.488Z,48.39
2023-04-19T02:31:49.479Z,48.37
2023-04-19T02:36:49.491Z,48.45
2023-04-19T02:41:49.491Z,48.3
2023-04-19T02:46:49.481Z,48.07
2023-04-19T02:51:49.496Z,47.85
2023-04-19T02:56:49.485Z,47.56
2023-04-19T03:01:49.497Z,47.52
2023-04-19T03:06:49.497Z,47.55
2023-04-19T03:11:49.499Z,47.59
2023-04-19T03:16:49.499Z,47.62
2023-04-19T03:21:49.490Z,47.57
2023-04-19T03:26:49.501Z,47.46
2023-04-19T03:31:49.493Z,47.57
2023-04-19T03:36:49.552Z,47.94
2023-04-19T03:41:49.506Z,48.38
2023-04-19T03:46:49.507Z,48.43
2023-04-19T03:51:49.507Z,48.63
2023-04-19T03:56:49.498Z,48.62
2023-04-19T04:01:49.510Z,48.57
2023-04-19T04:06:49.500Z,48.4
2023-04-19T04:11:49.512Z,47.99
2023-04-19T04:16:49.512Z,47.59
2023-04-19T04:21:49.503Z,47.33
2023-04-19T04:26:49.514Z,47.04
2023-04-19T04:31:49.506Z,46.75
2023-04-19T04:36:49.518Z,46.93
2023-04-19T04:41:49.518Z,46.98
2023-04-19T04:46:49.520Z,46.73
2023-04-19T04:51:49.520Z,46.69
2023-04-19T04:56:49.511Z,46.63
2023-04-19T05:01:49.523Z,46.29
2023-04-19T05:06:49.513Z,46.01
2023-04-19T05:11:49.525Z,45.81
2023-04-19T05:16:49.525Z,45.97
2023-04-19T05:21:49.517Z,45.95
2023-04-19T05:26:49.528Z,45.92
2023-04-19T05:31:49.519Z,45.57
2023-04-19T05:36:49.531Z,45.16
2023-04-19T05:41:49.531Z,45.09
2023-04-19T05:46:49.533Z,45.12
2023-04-19T05:51:49.534Z,44.7
2023-04-19T05:56:49.525Z,44.43
2023-04-19T06:01:49.536Z,44.44
2023-04-19T06:06:49.527Z,44.52
2023-04-19T06:11:49.539Z,44.91
2023-04-19T06:16:49.540Z,45.25
2023-04-19T06:21:49.530Z,45.08
2023-04-19T06:26:49.544Z,44.26
2023-04-19T06:31:49.533Z,44.37
2023-04-19T06:36:49.546Z,44.48
2023-04-19T06:41:49.536Z,44.45
2023-04-19T06:46:49.548Z,44.76
2023-04-19T06:51:49.548Z,45.25
2023-04-19T06:56:49.540Z,45.11
2023-04-19T07:01:49.553Z,45.31
2023-04-19T07:06:49.542Z,45.47
2023-04-19T07:11:49.555Z,45.31
2023-04-19T07:16:49.555Z,44.34
2023-04-19T07:21:49.557Z,43.8
2023-04-19T07:26:49.560Z,43.08
2023-04-19T07:31:49.549Z,42.56
2023-04-19T07:36:49.562Z,43.24
2023-04-19T07:41:49.552Z,44.11
2023-04-19T07:46:49.564Z,44.46
2023-04-19T07:51:49.565Z,45.53
2023-04-19T07:56:49.556Z,46.06
2023-04-19T08:01:49.570Z,45.97
2023-04-19T08:11:49.571Z,45.67
2023-04-19T08:16:49.572Z,46.1
2023-04-19T08:21:49.574Z,46.33
2023-04-19T08:26:49.575Z,46.16
2023-04-19T08:31:49.566Z,45.5
2023-04-19T08:36:49.578Z,45.19
2023-04-19T08:41:49.569Z,45.79
2023-04-19T08:46:49.629Z,45.73
2023-04-19T08:51:49.582Z,46.55
2023-04-19T08:56:49.572Z,46.06
2023-04-19T09:01:49.587Z,44.2
2023-04-19T09:06:49.576Z,42.59
2023-04-19T09:11:49.589Z,41.32
2023-04-19T09:16:49.579Z,41.68
2023-04-19T09:21:49.592Z,41.91
2023-04-19T09:26:49.593Z,44.45
2023-04-19T09:31:49.584Z,44.69
2023-04-19T09:36:49.598Z,44.71
2023-04-19T09:41:49.587Z,45.15
2023-04-19T09:46:49.600Z,45.59
2023-04-19T09:51:49.600Z,46.39
2023-04-19T09:56:49.603Z,47.81
2023-04-19T10:01:49.605Z,48.11
2023-04-19T10:06:49.595Z,47.61
2023-04-19T10:11:49.607Z,47.9
2023-04-19T10:16:49.597Z,48.21
2023-04-19T10:21:49.610Z,48.75
2023-04-19T10:26:49.611Z,48.96
2023-04-19T10:31:49.602Z,49.07
2023-04-19T10:36:49.616Z,48.84
2023-04-19T10:41:49.605Z,48.94
2023-04-19T10:46:49.617Z,49.57
2023-04-19T10:51:49.618Z,49.54
2023-04-19T10:56:49.620Z,49.04
2023-04-19T11:01:49.622Z,48.55
2023-04-19T11:06:49.612Z,49.68
2023-04-19T11:11:49.624Z,50.21
2023-04-19T11:16:49.614Z,50.12
2023-04-19T11:21:49.626Z,50.56
2023-04-19T11:26:49.627Z,50.22
2023-04-19T11:31:49.617Z,49.68
2023-04-19T11:36:49.631Z,49.59
2023-04-19T11:41:49.620Z,49.79
2023-04-19T11:46:49.632Z,49.39
2023-04-19T11:51:50.667Z,48.87
2023-04-19T11:56:49.635Z,48.18
2023-04-19T12:01:49.660Z,47.59
2023-04-19T12:06:49.626Z,47.61
2023-04-19T12:11:49.641Z,47.34
2023-04-19T12:16:49.629Z,47.35
2023-04-19T12:21:49.641Z,47.26
2023-04-19T12:26:49.641Z,47.36
2023-04-19T12:31:49.643Z,47.77
2023-04-19T12:36:49.646Z,47.37
2023-04-19T12:41:49.635Z,47.52
2023-04-19T12:46:49.647Z,47.45
2023-04-19T12:51:56.682Z,47.11
2023-04-19T12:56:49.650Z,46.88
2023-04-19T13:01:49.650Z,46.06
2023-04-19T13:06:49.641Z,44.95
2023-04-19T13:11:49.655Z,44.71
2023-04-19T13:16:49.644Z,44.89
2023-04-19T13:21:49.656Z,45.65
2023-04-19T13:26:49.658Z,46.07
2023-04-19T13:31:49.659Z,45.81
2023-04-19T13:36:49.661Z,44.46
2023-04-19T13:41:49.651Z,44.33
2023-04-19T13:46:49.662Z,43.74
2023-04-19T13:52:02.698Z,44.8
2023-04-19T13:56:49.666Z,45.26
2023-04-19T14:01:49.667Z,46.09
2023-04-19T14:06:49.657Z,46.94
2023-04-19T14:11:49.671Z,46.63
2023-04-19T14:16:49.661Z,45.7
2023-04-19T14:21:49.672Z,44.82
2023-04-19T14:26:49.674Z,44.43
2023-04-19T14:31:49.675Z,43.95
2023-04-19T14:36:49.717Z,44.16
2023-04-19T14:41:49.668Z,44.12
2023-04-19T14:46:49.682Z,44.49
2023-04-19T14:52:08.722Z,45.31
2023-04-19T14:56:49.707Z,45.59
2023-04-19T15:01:49.684Z,41.47
2023-04-19T15:06:49.688Z,38.71
2023-04-19T15:11:49.690Z,39.21
2023-04-19T15:16:49.680Z,38.94
2023-04-19T15:21:49.692Z,39.93
2023-04-19T15:26:49.683Z,40.62
2023-04-19T15:31:49.695Z,40.71
2023-04-19T15:36:49.698Z,40.98
2023-04-19T15:41:49.689Z,41.05
2023-04-19T15:46:49.703Z,41.5
2023-04-19T15:52:14.696Z,41.78
2023-04-19T15:56:49.704Z,41.52
2023-04-19T16:01:49.706Z,43.67
2023-04-19T16:06:49.708Z,46.58
2023-04-19T16:11:49.712Z,48.44
2023-04-19T16:16:49.701Z,46.71
2023-04-19T16:21:49.713Z,45.99
2023-04-19T16:26:49.705Z,46.41
2023-04-19T16:31:49.716Z,47.44
2023-04-19T16:36:49.718Z,47.92
2023-04-19T16:41:49.710Z,48.88
2023-04-19T16:46:49.723Z,49.64
2023-04-19T16:52:04.191Z,50
2023-04-19T16:56:49.724Z,50
2023-04-19T17:01:49.727Z,50.25
2023-04-19T17:06:49.727Z,50.4
2023-04-19T17:11:49.730Z,50.67
2023-04-19T17:16:49.720Z,50.81
2023-04-19T17:21:49.731Z,50.93
2023-04-19T17:26:49.723Z,50.79
2023-04-19T17:31:49.734Z,50.87
2023-04-19T17:36:49.735Z,50.58
2023-04-19T17:41:49.761Z,50.61
2023-04-19T17:46:49.740Z,50.63
2023-04-19T17:52:20.635Z,50.71
2023-04-19T17:56:49.740Z,50.71
2023-04-19T18:02:04.171Z,50.59
2023-04-19T18:06:49.743Z,50.31
2023-04-19T18:12:06.223Z,50.51
2023-04-19T18:16:49.735Z,50.56
2023-04-19T18:21:49.746Z,50.46
2023-04-19T18:26:49.738Z,50.49
2023-04-19T18:31:49.749Z,50.34
2023-04-19T18:36:49.751Z,50.47
2023-04-19T18:41:49.741Z,50.46
2023-04-19T18:46:49.754Z,50.29
2023-04-19T18:51:49.743Z,50.24
2023-04-19T18:56:49.754Z,50.29
2023-04-19T19:01:49.755Z,49.95
2023-04-19T19:06:49.756Z,49.82
2023-04-19T19:11:49.757Z,50.02
2023-04-19T19:16:49.749Z,49.85
2023-04-19T19:21:49.826Z,49.79
2023-04-19T19:26:49.751Z,49.72
2023-04-19T19:31:49.802Z,49.53
2023-04-19T19:36:49.764Z,49.66
2023-04-19T19:41:49.754Z,49.58
2023-04-19T19:46:49.767Z,49.64
2023-04-19T19:51:49.756Z,49.67
2023-04-19T19:56:49.767Z,49.58
2023-04-19T20:01:49.768Z,49.34
2023-04-19T20:06:49.769Z,49.32
2023-04-19T20:11:49.834Z,49.17
2023-04-19T20:16:49.761Z,49.2
2023-04-19T20:21:49.816Z,49.23
2023-04-19T20:26:49.763Z,49.19
2023-04-19T20:31:49.774Z,49.34
2023-04-19T20:36:49.775Z,49.29
2023-04-19T20:41:49.776Z,49.15
2023-04-19T20:46:49.776Z,49.36
2023-04-19T20:51:49.767Z,49.38
2023-04-19T20:56:49.778Z,49.28
2023-04-19T21:01:49.769Z,49.29
2023-04-19T21:06:49.780Z,49.43
2023-04-19T21:11:49.781Z,49.02
2023-04-19T21:16:49.772Z,49.22
2023-04-19T21:21:49.785Z,49.29
2023-04-19T21:26:49.774Z,49.33
2023-04-19T21:31:49.784Z,49.3
2023-04-19T21:36:49.785Z,49.2
2023-04-19T21:41:49.786Z,49.36
2023-04-19T21:46:49.787Z,49.63
2023-04-19T21:51:49.778Z,49.41
2023-04-19T21:56:49.788Z,49.54
2023-04-19T22:01:49.779Z,49.41
2023-04-19T22:06:49.790Z,49.6
2023-04-19T22:11:49.792Z,49.42
2023-04-19T22:16:49.782Z,50.08
2023-04-19T22:21:49.792Z,50.01
2023-04-19T22:26:49.783Z,49.8
2023-04-19T22:31:49.794Z,49.68
2023-04-19T22:36:49.784Z,49.78
2023-04-19T22:41:49.795Z,49.65
2023-04-19T22:46:49.795Z,49.25
2023-04-19T22:51:49.786Z,49.32
2023-04-19T22:56:49.797Z,49.29
2023-04-19T23:01:49.787Z,49.21
2023-04-19T23:06:49.847Z,49.08
2023-04-19T23:11:49.799Z,49.2
2023-04-19T23:16:49.799Z,49.31
2023-04-19T23:21:49.800Z,48.81
2023-04-19T23:26:49.790Z,48.75
2023-04-19T23:31:49.801Z,48.93
2023-04-19T23:36:49.792Z,48.95
2023-04-19T23:41:49.802Z,49.09
2023-04-19T23:46:49.803Z,49.12
2023-04-19T23:51:49.793Z,48.95
2023-04-19T23:56:49.804Z,48.96
